sensor_id;sensor_type;location;lat;lon;timestamp;P1;durP1;ratioP1;P2;durP2;ratioP2
7933;SDS011;4012;48.896;9.192;2023-04-25T00:00:43;1.50;;;1.40;;
7933;SDS011;4012;48.896;9.192;2023-04-25T00:03:09;1.77;;;1.67;;
7933;SDS011;4012;48.896;9.192;2023-04-25T00:05:35;1.60;;;1.50;;
7933;SDS011;4012;48.896;9.192;2023-04-25T00:08:02;1.27;;;1.17;;
7933;SDS011;4012;48.896;9.192;2023-04-25T00:10:28;1.57;;;1.47;;
7933;SDS011;4012;48.896;9.192;2023-04-25T00:12:54;2.00;;;1.87;;
7933;SDS011;4012;48.896;9.192;2023-04-25T00:15:19;2.53;;;2.03;;
7933;SDS011;4012;48.896;9.192;2023-04-25T00:17:45;2.17;;;1.83;;
7933;SDS011;4012;48.896;9.192;2023-04-25T00:20:11;2.33;;;1.93;;
7933;SDS011;4012;48.896;9.192;2023-04-25T00:22:37;2.43;;;1.97;;
7933;SDS011;4012;48.896;9.192;2023-04-25T00:25:05;1.80;;;1.70;;
7933;SDS011;4012;48.896;9.192;2023-04-25T00:27:32;2.00;;;1.90;;
7933;SDS011;4012;48.896;9.192;2023-04-25T00:29:57;1.73;;;1.53;;
7933;SDS011;4012;48.896;9.192;2023-04-25T00:32:23;2.33;;;1.70;;
7933;SDS011;4012;48.896;9.192;2023-04-25T00:34:49;1.83;;;1.70;;
7933;SDS011;4012;48.896;9.192;2023-04-25T00:37:15;7.00;;;1.90;;
7933;SDS011;4012;48.896;9.192;2023-04-25T00:39:40;1.83;;;1.73;;
7933;SDS011;4012;48.896;9.192;2023-04-25T00:42:06;1.70;;;1.57;;
7933;SDS011;4012;48.896;9.192;2023-04-25T00:44:32;2.87;;;1.83;;
7933;SDS011;4012;48.896;9.192;2023-04-25T00:47:00;1.50;;;1.40;;
7933;SDS011;4012;48.896;9.192;2023-04-25T00:49:27;2.00;;;1.87;;
7933;SDS011;4012;48.896;9.192;2023-04-25T00:51:53;1.87;;;1.77;;
7933;SDS011;4012;48.896;9.192;2023-04-25T00:54:18;2.10;;;1.90;;
7933;SDS011;4012;48.896;9.192;2023-04-25T00:56:44;2.30;;;2.10;;
7933;SDS011;4012;48.896;9.192;2023-04-25T00:59:10;2.93;;;2.20;;
7933;SDS011;4012;48.896;9.192;2023-04-25T01:01:36;2.10;;;1.80;;
7933;SDS011;4012;48.896;9.192;2023-04-25T01:04:03;2.83;;;2.00;;
7933;SDS011;4012;48.896;9.192;2023-04-25T01:06:29;2.23;;;2.03;;
7933;SDS011;4012;48.896;9.192;2023-04-25T01:08:55;2.03;;;1.90;;
7933;SDS011;4012;48.896;9.192;2023-04-25T01:11:21;1.60;;;1.50;;
7933;SDS011;4012;48.896;9.192;2023-04-25T01:13:46;1.90;;;1.80;;
7933;SDS011;4012;48.896;9.192;2023-04-25T01:16:12;2.63;;;1.97;;
7933;SDS011;4012;48.896;9.192;2023-04-25T01:18:38;2.00;;;1.73;;
7933;SDS011;4012;48.896;9.192;2023-04-25T01:21:11;3.40;;;2.10;;
7933;SDS011;4012;48.896;9.192;2023-04-25T01:23:41;2.37;;;2.00;;
7933;SDS011;4012;48.896;9.192;2023-04-25T01:26:08;2.00;;;1.90;;
7933;SDS011;4012;48.896;9.192;2023-04-25T01:28:35;2.10;;;1.90;;
7933;SDS011;4012;48.896;9.192;2023-04-25T01:31:01;2.23;;;1.70;;
7933;SDS011;4012;48.896;9.192;2023-04-25T01:33:27;1.67;;;1.57;;
7933;SDS011;4012;48.896;9.192;2023-04-25T01:35:53;2.10;;;1.90;;
7933;SDS011;4012;48.896;9.192;2023-04-25T01:38:19;4.07;;;1.97;;
7933;SDS011;4012;48.896;9.192;2023-04-25T01:40:45;3.47;;;1.80;;
7933;SDS011;4012;48.896;9.192;2023-04-25T01:43:12;2.87;;;2.20;;
7933;SDS011;4012;48.896;9.192;2023-04-25T01:45:39;3.90;;;1.60;;
7933;SDS011;4012;48.896;9.192;2023-04-25T01:48:06;1.70;;;1.60;;
7933;SDS011;4012;48.896;9.192;2023-04-25T01:50:32;1.80;;;1.70;;
7933;SDS011;4012;48.896;9.192;2023-04-25T01:52:58;1.90;;;1.80;;
7933;SDS011;4012;48.896;9.192;2023-04-25T01:55:24;2.17;;;1.93;;
7933;SDS011;4012;48.896;9.192;2023-04-25T01:57:51;1.60;;;1.50;;
7933;SDS011;4012;48.896;9.192;2023-04-25T02:00:16;4.03;;;1.70;;
7933;SDS011;4012;48.896;9.192;2023-04-25T02:02:42;1.90;;;1.80;;
7933;SDS011;4012;48.896;9.192;2023-04-25T02:05:08;2.40;;;1.87;;
7933;SDS011;4012;48.896;9.192;2023-04-25T02:07:33;2.63;;;1.90;;
7933;SDS011;4012;48.896;9.192;2023-04-25T02:09:59;1.83;;;1.70;;
7933;SDS011;4012;48.896;9.192;2023-04-25T02:12:25;2.53;;;1.70;;
7933;SDS011;4012;48.896;9.192;2023-04-25T02:14:52;2.27;;;1.70;;
7933;SDS011;4012;48.896;9.192;2023-04-25T02:17:17;1.97;;;1.77;;
7933;SDS011;4012;48.896;9.192;2023-04-25T02:19:43;2.00;;;1.80;;
7933;SDS011;4012;48.896;9.192;2023-04-25T02:22:09;2.00;;;1.80;;
7933;SDS011;4012;48.896;9.192;2023-04-25T02:24:35;1.73;;;1.63;;
7933;SDS011;4012;48.896;9.192;2023-04-25T02:27:01;2.00;;;1.80;;
7933;SDS011;4012;48.896;9.192;2023-04-25T02:29:27;4.00;;;1.73;;
7933;SDS011;4012;48.896;9.192;2023-04-25T02:31:52;2.00;;;1.80;;
7933;SDS011;4012;48.896;9.192;2023-04-25T02:34:18;2.03;;;1.70;;
7933;SDS011;4012;48.896;9.192;2023-04-25T02:36:44;2.70;;;1.90;;
7933;SDS011;4012;48.896;9.192;2023-04-25T02:39:09;2.93;;;2.20;;
7933;SDS011;4012;48.896;9.192;2023-04-25T02:41:35;2.77;;;2.17;;
7933;SDS011;4012;48.896;9.192;2023-04-25T02:44:01;2.07;;;1.87;;
7933;SDS011;4012;48.896;9.192;2023-04-25T02:46:26;4.73;;;2.00;;
7933;SDS011;4012;48.896;9.192;2023-04-25T02:48:52;2.37;;;2.17;;
7933;SDS011;4012;48.896;9.192;2023-04-25T02:51:17;2.43;;;2.23;;
7933;SDS011;4012;48.896;9.192;2023-04-25T02:53:43;2.50;;;2.23;;
7933;SDS011;4012;48.896;9.192;2023-04-25T02:56:09;2.20;;;1.80;;
7933;SDS011;4012;48.896;9.192;2023-04-25T02:58:34;2.53;;;2.33;;
7933;SDS011;4012;48.896;9.192;2023-04-25T03:01:00;2.60;;;2.17;;
7933;SDS011;4012;48.896;9.192;2023-04-25T03:03:26;4.30;;;2.20;;
7933;SDS011;4012;48.896;9.192;2023-04-25T03:05:51;2.40;;;2.20;;
7933;SDS011;4012;48.896;9.192;2023-04-25T03:08:17;4.40;;;1.93;;
7933;SDS011;4012;48.896;9.192;2023-04-25T03:10:44;2.83;;;2.10;;
7933;SDS011;4012;48.896;9.192;2023-04-25T03:13:10;3.60;;;2.20;;
7933;SDS011;4012;48.896;9.192;2023-04-25T03:15:36;2.73;;;2.17;;
7933;SDS011;4012;48.896;9.192;2023-04-25T03:18:02;3.93;;;2.13;;
7933;SDS011;4012;48.896;9.192;2023-04-25T03:20:28;2.27;;;2.07;;
7933;SDS011;4012;48.896;9.192;2023-04-25T03:22:53;2.27;;;2.07;;
7933;SDS011;4012;48.896;9.192;2023-04-25T03:25:19;2.80;;;1.80;;
7933;SDS011;4012;48.896;9.192;2023-04-25T03:27:47;2.20;;;1.80;;
7933;SDS011;4012;48.896;9.192;2023-04-25T03:30:13;2.17;;;1.97;;
7933;SDS011;4012;48.896;9.192;2023-04-25T03:32:38;1.90;;;1.80;;
7933;SDS011;4012;48.896;9.192;2023-04-25T03:35:04;2.73;;;2.33;;
7933;SDS011;4012;48.896;9.192;2023-04-25T03:37:30;3.50;;;2.43;;
7933;SDS011;4012;48.896;9.192;2023-04-25T03:39:56;1.87;;;1.60;;
7933;SDS011;4012;48.896;9.192;2023-04-25T03:42:21;2.27;;;2.00;;
7933;SDS011;4012;48.896;9.192;2023-04-25T03:44:48;1.97;;;1.80;;
7933;SDS011;4012;48.896;9.192;2023-04-25T03:47:14;2.40;;;2.20;;
7933;SDS011;4012;48.896;9.192;2023-04-25T03:49:40;1.93;;;1.80;;
7933;SDS011;4012;48.896;9.192;2023-04-25T03:52:06;2.50;;;2.30;;
7933;SDS011;4012;48.896;9.192;2023-04-25T03:54:32;4.20;;;2.10;;
7933;SDS011;4012;48.896;9.192;2023-04-25T03:56:57;2.23;;;1.70;;
7933;SDS011;4012;48.896;9.192;2023-04-25T03:59:23;2.57;;;2.00;;
7933;SDS011;4012;48.896;9.192;2023-04-25T04:01:49;3.70;;;2.30;;
7933;SDS011;4012;48.896;9.192;2023-04-25T04:04:15;3.00;;;2.00;;
7933;SDS011;4012;48.896;9.192;2023-04-25T04:06:41;2.80;;;2.07;;
7933;SDS011;4012;48.896;9.192;2023-04-25T04:09:07;4.20;;;1.93;;
7933;SDS011;4012;48.896;9.192;2023-04-25T04:11:36;3.07;;;2.37;;
7933;SDS011;4012;48.896;9.192;2023-04-25T04:14:03;2.27;;;2.07;;
7933;SDS011;4012;48.896;9.192;2023-04-25T04:16:31;3.17;;;2.30;;
7933;SDS011;4012;48.896;9.192;2023-04-25T04:18:57;3.63;;;2.40;;
7933;SDS011;4012;48.896;9.192;2023-04-25T04:21:23;3.30;;;2.43;;
7933;SDS011;4012;48.896;9.192;2023-04-25T04:23:48;2.87;;;2.10;;
7933;SDS011;4012;48.896;9.192;2023-04-25T04:26:14;3.00;;;2.70;;
7933;SDS011;4012;48.896;9.192;2023-04-25T04:28:41;3.43;;;2.60;;
7933;SDS011;4012;48.896;9.192;2023-04-25T04:31:10;2.50;;;2.27;;
7933;SDS011;4012;48.896;9.192;2023-04-25T04:33:36;2.60;;;2.40;;
7933;SDS011;4012;48.896;9.192;2023-04-25T04:36:02;3.77;;;2.40;;
7933;SDS011;4012;48.896;9.192;2023-04-25T04:38:29;3.07;;;2.33;;
7933;SDS011;4012;48.896;9.192;2023-04-25T04:40:55;2.83;;;2.57;;
7933;SDS011;4012;48.896;9.192;2023-04-25T04:43:20;2.53;;;2.33;;
7933;SDS011;4012;48.896;9.192;2023-04-25T04:45:47;2.60;;;2.40;;
7933;SDS011;4012;48.896;9.192;2023-04-25T04:48:14;2.20;;;2.00;;
7933;SDS011;4012;48.896;9.192;2023-04-25T04:50:40;2.80;;;2.60;;
7933;SDS011;4012;48.896;9.192;2023-04-25T04:53:06;2.70;;;2.50;;
7933;SDS011;4012;48.896;9.192;2023-04-25T04:55:32;4.83;;;2.37;;
7933;SDS011;4012;48.896;9.192;2023-04-25T04:57:57;2.43;;;2.23;;
7933;SDS011;4012;48.896;9.192;2023-04-25T05:00:23;2.33;;;2.03;;
7933;SDS011;4012;48.896;9.192;2023-04-25T05:02:49;3.37;;;2.50;;
7933;SDS011;4012;48.896;9.192;2023-04-25T05:05:14;2.57;;;2.27;;
7933;SDS011;4012;48.896;9.192;2023-04-25T05:07:40;2.73;;;2.53;;
7933;SDS011;4012;48.896;9.192;2023-04-25T05:10:06;2.93;;;2.63;;
7933;SDS011;4012;48.896;9.192;2023-04-25T05:12:32;2.70;;;2.50;;
7933;SDS011;4012;48.896;9.192;2023-04-25T05:14:57;2.77;;;2.50;;
7933;SDS011;4012;48.896;9.192;2023-04-25T05:17:23;3.00;;;2.70;;
7933;SDS011;4012;48.896;9.192;2023-04-25T05:19:49;2.90;;;2.60;;
7933;SDS011;4012;48.896;9.192;2023-04-25T05:22:14;3.13;;;2.67;;
7933;SDS011;4012;48.896;9.192;2023-04-25T05:24:40;3.27;;;2.53;;
7933;SDS011;4012;48.896;9.192;2023-04-25T05:27:06;5.63;;;2.63;;
7933;SDS011;4012;48.896;9.192;2023-04-25T05:29:31;3.17;;;2.37;;
7933;SDS011;4012;48.896;9.192;2023-04-25T05:31:57;3.37;;;2.57;;
7933;SDS011;4012;48.896;9.192;2023-04-25T05:34:22;3.57;;;2.97;;
7933;SDS011;4012;48.896;9.192;2023-04-25T05:36:48;3.87;;;3.00;;
7933;SDS011;4012;48.896;9.192;2023-04-25T05:39:17;5.70;;;5.20;;
7933;SDS011;4012;48.896;9.192;2023-04-25T05:41:42;7.70;;;4.57;;
7933;SDS011;4012;48.896;9.192;2023-04-25T05:44:08;2.90;;;2.53;;
7933;SDS011;4012;48.896;9.192;2023-04-25T05:46:34;3.03;;;2.73;;
7933;SDS011;4012;48.896;9.192;2023-04-25T05:49:00;3.77;;;2.93;;
7933;SDS011;4012;48.896;9.192;2023-04-25T05:51:25;6.23;;;3.00;;
7933;SDS011;4012;48.896;9.192;2023-04-25T05:53:52;3.90;;;3.43;;
7933;SDS011;4012;48.896;9.192;2023-04-25T05:56:18;2.97;;;2.67;;
7933;SDS011;4012;48.896;9.192;2023-04-25T05:58:43;3.10;;;2.80;;
7933;SDS011;4012;48.896;9.192;2023-04-25T06:01:09;2.93;;;2.63;;
7933;SDS011;4012;48.896;9.192;2023-04-25T06:03:38;3.60;;;2.60;;
7933;SDS011;4012;48.896;9.192;2023-04-25T06:06:03;2.60;;;2.40;;
7933;SDS011;4012;48.896;9.192;2023-04-25T06:08:29;4.93;;;3.63;;
7933;SDS011;4012;48.896;9.192;2023-04-25T06:10:55;2.73;;;2.53;;
7933;SDS011;4012;48.896;9.192;2023-04-25T06:13:20;5.67;;;2.30;;
7933;SDS011;4012;48.896;9.192;2023-04-25T06:15:46;2.70;;;2.50;;
7933;SDS011;4012;48.896;9.192;2023-04-25T06:18:11;2.83;;;2.60;;
7933;SDS011;4012;48.896;9.192;2023-04-25T06:20:37;2.70;;;2.20;;
7933;SDS011;4012;48.896;9.192;2023-04-25T06:23:02;2.60;;;2.40;;
7933;SDS011;4012;48.896;9.192;2023-04-25T06:25:28;2.57;;;2.37;;
7933;SDS011;4012;48.896;9.192;2023-04-25T06:27:53;5.03;;;2.47;;
7933;SDS011;4012;48.896;9.192;2023-04-25T06:30:19;2.27;;;2.07;;
7933;SDS011;4012;48.896;9.192;2023-04-25T06:32:48;2.40;;;2.20;;
7933;SDS011;4012;48.896;9.192;2023-04-25T06:35:13;3.17;;;2.57;;
7933;SDS011;4012;48.896;9.192;2023-04-25T06:37:39;3.33;;;2.43;;
7933;SDS011;4012;48.896;9.192;2023-04-25T06:40:05;2.20;;;1.83;;
7933;SDS011;4012;48.896;9.192;2023-04-25T06:42:31;2.60;;;2.20;;
7933;SDS011;4012;48.896;9.192;2023-04-25T06:44:57;3.37;;;3.03;;
7933;SDS011;4012;48.896;9.192;2023-04-25T06:47:22;2.40;;;2.00;;
7933;SDS011;4012;48.896;9.192;2023-04-25T06:49:48;3.77;;;2.60;;
7933;SDS011;4012;48.896;9.192;2023-04-25T06:52:14;2.30;;;2.10;;
7933;SDS011;4012;48.896;9.192;2023-04-25T06:54:39;2.33;;;2.10;;
7933;SDS011;4012;48.896;9.192;2023-04-25T06:57:05;3.40;;;2.20;;
7933;SDS011;4012;48.896;9.192;2023-04-25T06:59:31;2.33;;;1.90;;
7933;SDS011;4012;48.896;9.192;2023-04-25T07:02:00;2.50;;;2.30;;
7933;SDS011;4012;48.896;9.192;2023-04-25T07:04:25;2.00;;;1.87;;
7933;SDS011;4012;48.896;9.192;2023-04-25T07:06:51;2.13;;;1.93;;
7933;SDS011;4012;48.896;9.192;2023-04-25T07:09:17;2.50;;;2.30;;
7933;SDS011;4012;48.896;9.192;2023-04-25T07:11:42;3.00;;;2.20;;
7933;SDS011;4012;48.896;9.192;2023-04-25T07:14:08;3.40;;;2.03;;
7933;SDS011;4012;48.896;9.192;2023-04-25T07:16:33;2.80;;;2.30;;
7933;SDS011;4012;48.896;9.192;2023-04-25T07:18:59;3.33;;;2.47;;
7933;SDS011;4012;48.896;9.192;2023-04-25T07:21:25;4.80;;;2.77;;
7933;SDS011;4012;48.896;9.192;2023-04-25T07:23:51;2.67;;;2.47;;
7933;SDS011;4012;48.896;9.192;2023-04-25T07:26:16;4.03;;;2.50;;
7933;SDS011;4012;48.896;9.192;2023-04-25T07:28:42;3.97;;;2.73;;
7933;SDS011;4012;48.896;9.192;2023-04-25T07:31:08;5.63;;;2.90;;
7933;SDS011;4012;48.896;9.192;2023-04-25T07:33:34;3.80;;;2.80;;
7933;SDS011;4012;48.896;9.192;2023-04-25T07:35:59;3.37;;;3.07;;
7933;SDS011;4012;48.896;9.192;2023-04-25T07:38:25;3.47;;;2.87;;
7933;SDS011;4012;48.896;9.192;2023-04-25T07:40:51;3.50;;;2.70;;
7933;SDS011;4012;48.896;9.192;2023-04-25T07:43:17;3.10;;;2.70;;
7933;SDS011;4012;48.896;9.192;2023-04-25T07:45:45;3.33;;;3.00;;
7933;SDS011;4012;48.896;9.192;2023-04-25T07:48:16;4.03;;;3.30;;
7933;SDS011;4012;48.896;9.192;2023-04-25T07:50:43;3.70;;;2.70;;
7933;SDS011;4012;48.896;9.192;2023-04-25T07:53:08;3.50;;;3.20;;
7933;SDS011;4012;48.896;9.192;2023-04-25T07:55:34;3.97;;;3.03;;
7933;SDS011;4012;48.896;9.192;2023-04-25T07:58:01;3.80;;;3.23;;
7933;SDS011;4012;48.896;9.192;2023-04-25T08:00:27;3.17;;;2.87;;
7933;SDS011;4012;48.896;9.192;2023-04-25T08:02:53;4.03;;;2.97;;
7933;SDS011;4012;48.896;9.192;2023-04-25T08:05:19;3.83;;;3.53;;
7933;SDS011;4012;48.896;9.192;2023-04-25T08:07:44;3.73;;;3.43;;
7933;SDS011;4012;48.896;9.192;2023-04-25T08:10:10;4.20;;;3.80;;
7933;SDS011;4012;48.896;9.192;2023-04-25T08:12:36;4.23;;;3.63;;
7933;SDS011;4012;48.896;9.192;2023-04-25T08:15:01;4.07;;;3.67;;
7933;SDS011;4012;48.896;9.192;2023-04-25T08:17:27;4.77;;;3.90;;
7933;SDS011;4012;48.896;9.192;2023-04-25T08:19:53;4.30;;;3.70;;
7933;SDS011;4012;48.896;9.192;2023-04-25T08:22:18;3.77;;;3.30;;
7933;SDS011;4012;48.896;9.192;2023-04-25T08:24:44;3.77;;;3.47;;
7933;SDS011;4012;48.896;9.192;2023-04-25T08:27:09;4.63;;;3.83;;
7933;SDS011;4012;48.896;9.192;2023-04-25T08:29:36;3.83;;;3.53;;
7933;SDS011;4012;48.896;9.192;2023-04-25T08:32:02;4.40;;;4.00;;
7933;SDS011;4012;48.896;9.192;2023-04-25T08:34:27;5.17;;;3.30;;
7933;SDS011;4012;48.896;9.192;2023-04-25T08:36:53;3.87;;;3.40;;
7933;SDS011;4012;48.896;9.192;2023-04-25T08:39:18;3.67;;;3.37;;
7933;SDS011;4012;48.896;9.192;2023-04-25T08:41:45;3.43;;;3.13;;
7933;SDS011;4012;48.896;9.192;2023-04-25T08:44:11;4.57;;;3.83;;
7933;SDS011;4012;48.896;9.192;2023-04-25T08:46:38;4.03;;;3.20;;
7933;SDS011;4012;48.896;9.192;2023-04-25T08:49:07;3.67;;;3.37;;
7933;SDS011;4012;48.896;9.192;2023-04-25T08:51:39;4.30;;;3.50;;
7933;SDS011;4012;48.896;9.192;2023-04-25T08:54:10;5.40;;;3.83;;
7933;SDS011;4012;48.896;9.192;2023-04-25T08:56:38;4.53;;;3.90;;
7933;SDS011;4012;48.896;9.192;2023-04-25T08:59:05;3.80;;;3.50;;
7933;SDS011;4012;48.896;9.192;2023-04-25T09:01:33;4.20;;;3.70;;
7933;SDS011;4012;48.896;9.192;2023-04-25T09:04:00;4.20;;;3.40;;
7933;SDS011;4012;48.896;9.192;2023-04-25T09:06:26;3.70;;;3.40;;
7933;SDS011;4012;48.896;9.192;2023-04-25T09:08:53;4.10;;;3.70;;
7933;SDS011;4012;48.896;9.192;2023-04-25T09:11:19;4.73;;;4.20;;
7933;SDS011;4012;48.896;9.192;2023-04-25T09:13:44;4.13;;;3.73;;
7933;SDS011;4012;48.896;9.192;2023-04-25T09:16:10;4.53;;;4.03;;
7933;SDS011;4012;48.896;9.192;2023-04-25T09:18:36;4.10;;;3.80;;
7933;SDS011;4012;48.896;9.192;2023-04-25T09:23:39;5.23;;;4.33;;
7933;SDS011;4012;48.896;9.192;2023-04-25T09:26:06;5.03;;;4.53;;
7933;SDS011;4012;48.896;9.192;2023-04-25T09:28:33;4.43;;;4.03;;
7933;SDS011;4012;48.896;9.192;2023-04-25T09:31:00;5.73;;;4.80;;
7933;SDS011;4012;48.896;9.192;2023-04-25T09:33:32;7.17;;;4.70;;
7933;SDS011;4012;48.896;9.192;2023-04-25T09:36:04;5.17;;;4.63;;
7933;SDS011;4012;48.896;9.192;2023-04-25T09:38:41;5.87;;;5.10;;
7933;SDS011;4012;48.896;9.192;2023-04-25T09:41:08;5.30;;;4.80;;
7933;SDS011;4012;48.896;9.192;2023-04-25T09:43:35;4.93;;;4.40;;
7933;SDS011;4012;48.896;9.192;2023-04-25T09:46:02;4.97;;;4.57;;
7933;SDS011;4012;48.896;9.192;2023-04-25T09:48:28;8.13;;;4.03;;
7933;SDS011;4012;48.896;9.192;2023-04-25T09:51:13;5.93;;;4.53;;
7933;SDS011;4012;48.896;9.192;2023-04-25T09:53:40;6.33;;;3.73;;
7933;SDS011;4012;48.896;9.192;2023-04-25T09:56:11;4.10;;;3.70;;
7933;SDS011;4012;48.896;9.192;2023-04-25T09:58:38;6.60;;;4.20;;
7933;SDS011;4012;48.896;9.192;2023-04-25T10:01:14;7.20;;;5.17;;
7933;SDS011;4012;48.896;9.192;2023-04-25T10:03:41;4.27;;;3.70;;
7933;SDS011;4012;48.896;9.192;2023-04-25T10:06:12;5.10;;;4.13;;
7933;SDS011;4012;48.896;9.192;2023-04-25T10:08:41;6.03;;;5.40;;
7933;SDS011;4012;48.896;9.192;2023-04-25T10:11:09;8.53;;;4.50;;
7933;SDS011;4012;48.896;9.192;2023-04-25T10:13:35;6.30;;;4.33;;
7933;SDS011;4012;48.896;9.192;2023-04-25T10:16:02;4.67;;;4.17;;
7933;SDS011;4012;48.896;9.192;2023-04-25T10:18:29;3.93;;;3.60;;
7933;SDS011;4012;48.896;9.192;2023-04-25T10:20:59;4.93;;;3.83;;
7933;SDS011;4012;48.896;9.192;2023-04-25T10:23:28;4.80;;;4.13;;
7933;SDS011;4012;48.896;9.192;2023-04-25T10:25:55;3.43;;;3.10;;
7933;SDS011;4012;48.896;9.192;2023-04-25T10:28:21;3.27;;;2.97;;
7933;SDS011;4012;48.896;9.192;2023-04-25T10:33:33;3.33;;;3.03;;
7933;SDS011;4012;48.896;9.192;2023-04-25T10:36:09;3.77;;;3.30;;
7933;SDS011;4012;48.896;9.192;2023-04-25T10:38:46;3.67;;;3.33;;
7933;SDS011;4012;48.896;9.192;2023-04-25T10:41:13;3.17;;;2.87;;
7933;SDS011;4012;48.896;9.192;2023-04-25T10:43:46;4.80;;;3.10;;
7933;SDS011;4012;48.896;9.192;2023-04-25T10:46:13;2.93;;;2.40;;
7933;SDS011;4012;48.896;9.192;2023-04-25T10:48:51;2.57;;;2.37;;
7933;SDS011;4012;48.896;9.192;2023-04-25T10:51:19;3.37;;;2.50;;
7933;SDS011;4012;48.896;9.192;2023-04-25T10:56:30;3.00;;;2.70;;
7933;SDS011;4012;48.896;9.192;2023-04-25T11:01:48;3.53;;;3.17;;
7933;SDS011;4012;48.896;9.192;2023-04-25T11:04:49;3.40;;;2.97;;
7933;SDS011;4012;48.896;9.192;2023-04-25T11:09:38;3.70;;;3.40;;
7933;SDS011;4012;48.896;9.192;2023-04-25T11:12:07;3.90;;;3.40;;
7933;SDS011;4012;48.896;9.192;2023-04-25T11:14:33;3.30;;;3.00;;
7933;SDS011;4012;48.896;9.192;2023-04-25T11:16:59;3.67;;;2.80;;
7933;SDS011;4012;48.896;9.192;2023-04-25T11:19:28;3.67;;;3.20;;
7933;SDS011;4012;48.896;9.192;2023-04-25T11:21:55;2.93;;;2.63;;
7933;SDS011;4012;48.896;9.192;2023-04-25T11:24:31;3.17;;;2.73;;
7933;SDS011;4012;48.896;9.192;2023-04-25T11:26:58;3.10;;;2.80;;
7933;SDS011;4012;48.896;9.192;2023-04-25T11:29:27;3.13;;;2.80;;
7933;SDS011;4012;48.896;9.192;2023-04-25T11:31:54;3.03;;;2.73;;
7933;SDS011;4012;48.896;9.192;2023-04-25T11:34:23;3.33;;;3.03;;
7933;SDS011;4012;48.896;9.192;2023-04-25T11:36:50;4.50;;;3.20;;
7933;SDS011;4012;48.896;9.192;2023-04-25T11:39:17;3.17;;;2.87;;
7933;SDS011;4012;48.896;9.192;2023-04-25T11:41:44;5.80;;;2.83;;
7933;SDS011;4012;48.896;9.192;2023-04-25T11:44:10;2.80;;;2.60;;
7933;SDS011;4012;48.896;9.192;2023-04-25T11:46:35;3.63;;;2.67;;
7933;SDS011;4012;48.896;9.192;2023-04-25T11:49:01;3.97;;;3.13;;
7933;SDS011;4012;48.896;9.192;2023-04-25T11:51:27;3.03;;;2.83;;
7933;SDS011;4012;48.896;9.192;2023-04-25T11:53:53;2.70;;;2.50;;
7933;SDS011;4012;48.896;9.192;2023-04-25T11:56:19;3.63;;;3.17;;
7933;SDS011;4012;48.896;9.192;2023-04-25T11:58:58;3.07;;;2.77;;
7933;SDS011;4012;48.896;9.192;2023-04-25T12:01:29;3.33;;;2.83;;
7933;SDS011;4012;48.896;9.192;2023-04-25T12:03:56;3.63;;;2.83;;
7933;SDS011;4012;48.896;9.192;2023-04-25T12:06:26;2.80;;;2.60;;
7933;SDS011;4012;48.896;9.192;2023-04-25T12:09:04;4.13;;;3.17;;
7933;SDS011;4012;48.896;9.192;2023-04-25T12:11:40;2.87;;;2.63;;
7933;SDS011;4012;48.896;9.192;2023-04-25T12:14:07;3.03;;;2.63;;
7933;SDS011;4012;48.896;9.192;2023-04-25T12:16:45;3.40;;;3.10;;
7933;SDS011;4012;48.896;9.192;2023-04-25T12:19:18;3.60;;;3.03;;
7933;SDS011;4012;48.896;9.192;2023-04-25T12:21:56;3.50;;;3.07;;
7933;SDS011;4012;48.896;9.192;2023-04-25T12:24:22;3.73;;;3.37;;
7933;SDS011;4012;48.896;9.192;2023-04-25T12:26:58;4.83;;;3.83;;
7933;SDS011;4012;48.896;9.192;2023-04-25T12:29:29;4.23;;;3.53;;
7933;SDS011;4012;48.896;9.192;2023-04-25T12:31:56;4.10;;;3.70;;
7933;SDS011;4012;48.896;9.192;2023-04-25T12:34:26;4.57;;;3.80;;
7933;SDS011;4012;48.896;9.192;2023-04-25T12:36:53;4.43;;;3.50;;
7933;SDS011;4012;48.896;9.192;2023-04-25T12:39:20;3.33;;;3.03;;
7933;SDS011;4012;48.896;9.192;2023-04-25T12:41:47;4.23;;;3.27;;
7933;SDS011;4012;48.896;9.192;2023-04-25T12:44:13;5.40;;;4.43;;
7933;SDS011;4012;48.896;9.192;2023-04-25T12:46:39;5.13;;;4.00;;
7933;SDS011;4012;48.896;9.192;2023-04-25T12:49:05;7.80;;;3.77;;
7933;SDS011;4012;48.896;9.192;2023-04-25T12:51:32;4.77;;;3.70;;
7933;SDS011;4012;48.896;9.192;2023-04-25T12:53:59;4.20;;;3.73;;
7933;SDS011;4012;48.896;9.192;2023-04-25T12:56:29;5.90;;;3.83;;
7933;SDS011;4012;48.896;9.192;2023-04-25T12:58:55;4.50;;;4.00;;
7933;SDS011;4012;48.896;9.192;2023-04-25T13:01:21;5.17;;;3.57;;
7933;SDS011;4012;48.896;9.192;2023-04-25T13:03:47;5.13;;;3.67;;
7933;SDS011;4012;48.896;9.192;2023-04-25T13:06:13;4.00;;;3.60;;
7933;SDS011;4012;48.896;9.192;2023-04-25T13:08:39;5.00;;;3.97;;
7933;SDS011;4012;48.896;9.192;2023-04-25T13:11:06;7.20;;;4.30;;
7933;SDS011;4012;48.896;9.192;2023-04-25T13:13:32;7.27;;;4.60;;
7933;SDS011;4012;48.896;9.192;2023-04-25T13:15:59;5.60;;;4.43;;
7933;SDS011;4012;48.896;9.192;2023-04-25T13:18:32;9.37;;;4.93;;
7933;SDS011;4012;48.896;9.192;2023-04-25T13:20:58;4.90;;;4.13;;
7933;SDS011;4012;48.896;9.192;2023-04-25T13:23:27;4.20;;;3.70;;
7933;SDS011;4012;48.896;9.192;2023-04-25T13:25:54;5.50;;;4.87;;
7933;SDS011;4012;48.896;9.192;2023-04-25T13:28:20;7.37;;;5.13;;
7933;SDS011;4012;48.896;9.192;2023-04-25T13:30:46;6.33;;;4.60;;
7933;SDS011;4012;48.896;9.192;2023-04-25T13:33:13;6.23;;;4.83;;
7933;SDS011;4012;48.896;9.192;2023-04-25T13:35:40;5.67;;;4.83;;
7933;SDS011;4012;48.896;9.192;2023-04-25T13:38:06;8.30;;;5.37;;
7933;SDS011;4012;48.896;9.192;2023-04-25T13:40:32;7.07;;;5.47;;
7933;SDS011;4012;48.896;9.192;2023-04-25T13:42:58;6.50;;;5.00;;
7933;SDS011;4012;48.896;9.192;2023-04-25T13:45:24;5.30;;;4.53;;
7933;SDS011;4012;48.896;9.192;2023-04-25T13:47:50;6.60;;;5.17;;
7933;SDS011;4012;48.896;9.192;2023-04-25T13:50:16;5.73;;;4.70;;
7933;SDS011;4012;48.896;9.192;2023-04-25T13:52:42;6.40;;;4.47;;
7933;SDS011;4012;48.896;9.192;2023-04-25T13:55:08;5.97;;;4.90;;
7933;SDS011;4012;48.896;9.192;2023-04-25T13:57:35;4.67;;;4.27;;
7933;SDS011;4012;48.896;9.192;2023-04-25T14:00:01;6.40;;;4.33;;
7933;SDS011;4012;48.896;9.192;2023-04-25T14:02:36;6.10;;;4.87;;
7933;SDS011;4012;48.896;9.192;2023-04-25T14:05:03;5.37;;;4.23;;
7933;SDS011;4012;48.896;9.192;2023-04-25T14:07:30;5.03;;;4.20;;
7933;SDS011;4012;48.896;9.192;2023-04-25T14:09:56;5.57;;;4.47;;
7933;SDS011;4012;48.896;9.192;2023-04-25T14:12:25;4.43;;;4.00;;
7933;SDS011;4012;48.896;9.192;2023-04-25T14:14:51;5.23;;;4.43;;
7933;SDS011;4012;48.896;9.192;2023-04-25T14:17:18;3.83;;;3.27;;
7933;SDS011;4012;48.896;9.192;2023-04-25T14:19:44;5.57;;;4.00;;
7933;SDS011;4012;48.896;9.192;2023-04-25T14:22:10;4.30;;;3.90;;
7933;SDS011;4012;48.896;9.192;2023-04-25T14:24:36;6.10;;;3.77;;
7933;SDS011;4012;48.896;9.192;2023-04-25T14:27:03;3.83;;;3.40;;
7933;SDS011;4012;48.896;9.192;2023-04-25T14:29:29;4.17;;;3.57;;
7933;SDS011;4012;48.896;9.192;2023-04-25T14:31:54;3.97;;;3.67;;
7933;SDS011;4012;48.896;9.192;2023-04-25T14:34:22;5.23;;;3.93;;
7933;SDS011;4012;48.896;9.192;2023-04-25T14:36:48;6.30;;;4.00;;
7933;SDS011;4012;48.896;9.192;2023-04-25T14:39:13;7.73;;;3.50;;
7933;SDS011;4012;48.896;9.192;2023-04-25T14:41:39;4.47;;;3.80;;
7933;SDS011;4012;48.896;9.192;2023-04-25T14:44:05;4.10;;;3.70;;
7933;SDS011;4012;48.896;9.192;2023-04-25T14:46:31;6.57;;;4.30;;
7933;SDS011;4012;48.896;9.192;2023-04-25T14:48:56;4.60;;;4.07;;
7933;SDS011;4012;48.896;9.192;2023-04-25T14:51:22;6.37;;;3.80;;
7933;SDS011;4012;48.896;9.192;2023-04-25T14:53:48;5.43;;;3.63;;
7933;SDS011;4012;48.896;9.192;2023-04-25T14:56:13;4.20;;;3.50;;
7933;SDS011;4012;48.896;9.192;2023-04-25T14:58:39;3.93;;;3.53;;
7933;SDS011;4012;48.896;9.192;2023-04-25T15:01:05;5.40;;;3.40;;
7933;SDS011;4012;48.896;9.192;2023-04-25T15:03:32;4.43;;;3.70;;
7933;SDS011;4012;48.896;9.192;2023-04-25T15:05:57;4.43;;;3.50;;
7933;SDS011;4012;48.896;9.192;2023-04-25T15:08:23;4.13;;;3.23;;
7933;SDS011;4012;48.896;9.192;2023-04-25T15:10:49;6.23;;;4.00;;
7933;SDS011;4012;48.896;9.192;2023-04-25T15:13:15;3.93;;;3.53;;
7933;SDS011;4012;48.896;9.192;2023-04-25T15:15:42;4.07;;;3.10;;
7933;SDS011;4012;48.896;9.192;2023-04-25T15:18:08;4.17;;;3.57;;
7933;SDS011;4012;48.896;9.192;2023-04-25T15:20:34;3.77;;;3.13;;
7933;SDS011;4012;48.896;9.192;2023-04-25T15:22:59;6.07;;;4.33;;
7933;SDS011;4012;48.896;9.192;2023-04-25T15:25:28;4.37;;;3.77;;